createdAt,value
2022-09-15T00:00:26.889Z,12.83
2022-09-15T00:01:26.937Z,12.85
2022-09-15T00:02:26.973Z,12.83
2022-09-15T00:03:26.834Z,12.80
2022-09-15T00:04:26.815Z,12.87
2022-09-15T00:05:26.808Z,12.83
2022-09-15T00:06:26.809Z,12.87
2022-09-15T00:07:26.774Z,12.82
2022-09-15T00:08:26.756Z,12.90
2022-09-15T00:09:26.719Z,12.80
2022-09-15T00:10:26.702Z,12.85
2022-09-15T00:11:26.710Z,12.86
2022-09-15T00:12:26.663Z,12.79
2022-09-15T00:13:26.643Z,12.80
2022-09-15T00:14:26.622Z,12.79
2022-09-15T00:15:26.602Z,12.73
2022-09-15T00:16:26.648Z,12.80
2022-09-15T00:17:26.570Z,12.72
2022-09-15T00:18:26.555Z,12.82
2022-09-15T00:19:26.534Z,12.75
2022-09-15T00:20:26.520Z,12.62
2022-09-15T00:21:26.498Z,12.64
2022-09-15T00:22:26.509Z,12.62
2022-09-15T00:23:26.460Z,12.73
2022-09-15T00:24:26.444Z,12.58
2022-09-15T00:25:26.423Z,12.60
2022-09-15T00:26:26.433Z,12.58
2022-09-15T00:27:26.413Z,12.60
2022-09-15T00:28:26.363Z,12.64
2022-09-15T00:29:26.347Z,12.64
2022-09-15T00:30:26.427Z,12.75
2022-09-15T00:31:26.405Z,12.73
2022-09-15T00:32:26.323Z,12.68
2022-09-15T00:33:26.278Z,12.60
2022-09-15T00:34:26.254Z,12.67
2022-09-15T00:35:26.237Z,12.62
2022-09-15T00:36:26.217Z,12.73
2022-09-15T00:37:26.228Z,12.60
2022-09-15T00:38:26.183Z,12.58
2022-09-15T00:39:26.162Z,12.76
2022-09-15T00:40:26.220Z,12.68
2022-09-15T00:41:26.125Z,12.65
2022-09-15T00:42:26.132Z,12.73
2022-09-15T00:43:26.089Z,12.72
2022-09-15T00:44:26.068Z,12.62
2022-09-15T00:45:26.094Z,12.62
2022-09-15T00:46:26.031Z,12.64
2022-09-15T00:47:26.041Z,12.57
2022-09-15T00:48:25.997Z,12.53
2022-09-15T00:49:25.976Z,12.62
2022-09-15T00:50:25.955Z,12.49
2022-09-15T00:51:25.940Z,12.55
2022-09-15T00:52:25.947Z,12.55
2022-09-15T00:53:25.896Z,12.65
2022-09-15T00:54:25.879Z,12.60
2022-09-15T00:55:25.863Z,12.76
2022-09-15T00:56:25.844Z,12.65
2022-09-15T00:57:25.853Z,12.62
2022-09-15T00:58:25.802Z,12.70
2022-09-15T00:59:25.781Z,12.65
2022-09-15T01:00:25.762Z,12.60
2022-09-15T01:01:25.783Z,12.57
2022-09-15T01:02:25.796Z,12.61
2022-09-15T01:03:25.706Z,12.62
2022-09-15T01:04:25.685Z,12.57
2022-09-15T01:05:25.664Z,12.57
2022-09-15T01:06:25.645Z,12.54
2022-09-15T01:07:25.648Z,12.53
2022-09-15T01:08:25.602Z,12.54
2022-09-15T01:09:25.585Z,12.53
2022-09-15T01:10:25.570Z,12.50
2022-09-15T01:11:25.546Z,12.50
2022-09-15T01:12:25.552Z,12.57
2022-09-15T01:13:25.508Z,12.40
2022-09-15T01:14:25.485Z,12.46
2022-09-15T01:15:25.469Z,12.49
2022-09-15T01:16:25.503Z,12.36
2022-09-15T01:17:25.459Z,12.36
2022-09-15T01:18:25.412Z,12.46
2022-09-15T01:19:25.394Z,12.45
2022-09-15T01:20:25.371Z,12.47
2022-09-15T01:21:25.353Z,12.32
2022-09-15T01:22:25.361Z,12.53
2022-09-15T01:23:25.322Z,12.36
2022-09-15T01:24:25.295Z,12.43
2022-09-15T01:25:25.281Z,12.40
2022-09-15T01:26:25.265Z,12.35
2022-09-15T01:27:41.635Z,12.45
2022-09-15T01:28:27.226Z,12.31
2022-09-15T01:29:25.206Z,12.36
2022-09-15T01:30:25.190Z,12.40
2022-09-15T01:31:25.177Z,12.36
2022-09-15T01:32:25.169Z,12.29
2022-09-15T01:33:25.125Z,12.27
2022-09-15T01:34:25.108Z,12.32
2022-09-15T01:35:25.085Z,12.27
2022-09-15T01:36:25.067Z,12.35
2022-09-15T01:37:25.076Z,12.29
2022-09-15T01:38:25.032Z,12.29
2022-09-15T01:39:25.011Z,12.28
2022-09-15T01:40:25.047Z,12.24
2022-09-15T01:41:24.976Z,12.32
2022-09-15T01:42:24.984Z,12.25
2022-09-15T01:43:24.938Z,12.37
2022-09-15T01:44:24.924Z,12.29
2022-09-15T01:45:24.927Z,12.31
2022-09-15T01:46:24.879Z,12.29
2022-09-15T01:47:24.883Z,12.29
2022-09-15T01:48:24.837Z,12.29
2022-09-15T01:49:24.816Z,12.37
2022-09-15T01:50:24.808Z,12.37
2022-09-15T01:51:24.777Z,12.39
2022-09-15T01:52:24.788Z,12.32
2022-09-15T01:53:24.743Z,12.40
2022-09-15T01:54:24.722Z,12.39
2022-09-15T01:55:24.705Z,12.32
2022-09-15T01:56:24.688Z,12.32
2022-09-15T01:57:24.690Z,12.35
2022-09-15T01:58:24.646Z,12.36
2022-09-15T01:59:24.628Z,12.28
2022-09-15T02:00:24.608Z,12.32
2022-09-15T02:01:24.649Z,12.40
2022-09-15T02:02:24.635Z,12.24
2022-09-15T02:03:24.551Z,12.28
2022-09-15T02:04:24.529Z,12.37
2022-09-15T02:05:24.511Z,12.28
2022-09-15T02:06:24.492Z,12.40
2022-09-15T02:07:24.496Z,12.45
2022-09-15T02:08:24.454Z,12.46
2022-09-15T02:09:24.436Z,12.45
2022-09-15T02:10:24.413Z,12.46
2022-09-15T02:11:24.393Z,12.42
2022-09-15T02:12:24.397Z,12.39
2022-09-15T02:13:24.360Z,12.35
2022-09-15T02:14:24.332Z,12.39
2022-09-15T02:15:24.312Z,12.39
2022-09-15T02:16:24.377Z,12.49
2022-09-15T02:17:24.297Z,12.43
2022-09-15T02:18:24.249Z,12.47
2022-09-15T02:19:24.228Z,12.49
2022-09-15T02:20:24.210Z,12.47
2022-09-15T02:21:24.197Z,12.42
2022-09-15T02:22:24.228Z,12.43
2022-09-15T02:23:24.155Z,12.40
2022-09-15T02:24:24.137Z,12.42
2022-09-15T02:25:24.119Z,12.42
2022-09-15T02:26:24.124Z,12.39
2022-09-15T02:27:24.112Z,12.39
2022-09-15T02:28:24.060Z,12.35
2022-09-15T02:29:24.042Z,12.46
2022-09-15T02:30:24.021Z,12.46
2022-09-15T02:31:24.093Z,12.39
2022-09-15T02:32:24.008Z,12.40
2022-09-15T02:33:23.961Z,12.37
2022-09-15T02:34:23.943Z,12.29
2022-09-15T02:35:23.920Z,12.29
2022-09-15T02:36:23.904Z,12.25
2022-09-15T02:37:23.914Z,12.39
2022-09-15T02:38:23.870Z,12.28
2022-09-15T02:39:23.849Z,12.24
2022-09-15T02:40:23.935Z,12.22
2022-09-15T02:41:23.811Z,12.27
2022-09-15T02:42:23.824Z,12.24
2022-09-15T02:43:23.777Z,12.35
2022-09-15T02:44:23.755Z,12.32
2022-09-15T02:45:23.784Z,12.27
2022-09-15T02:46:23.721Z,12.25
2022-09-15T02:47:23.732Z,12.32
2022-09-15T02:48:23.685Z,12.29
2022-09-15T02:49:23.667Z,12.24
2022-09-15T02:50:23.646Z,12.37
2022-09-15T02:51:23.626Z,12.28
2022-09-15T02:52:23.634Z,12.28
2022-09-15T02:53:23.586Z,12.25
2022-09-15T02:54:23.573Z,12.37
2022-09-15T02:55:23.549Z,12.35
2022-09-15T02:56:23.535Z,12.36
2022-09-15T02:57:23.544Z,12.29
2022-09-15T02:58:23.503Z,12.32
2022-09-15T02:59:23.474Z,12.35
2022-09-15T03:00:23.453Z,12.36
2022-09-15T03:01:23.495Z,12.29
2022-09-15T03:02:23.490Z,12.29
2022-09-15T03:03:23.388Z,12.29
2022-09-15T03:04:23.372Z,12.27
2022-09-15T03:05:23.354Z,12.29
2022-09-15T03:06:23.335Z,12.27
2022-09-15T03:07:23.343Z,12.31
2022-09-15T03:08:23.294Z,12.27
2022-09-15T03:09:23.273Z,12.31
2022-09-15T03:10:23.295Z,12.27
2022-09-15T03:11:23.231Z,12.29
2022-09-15T03:12:23.250Z,12.22
2022-09-15T03:13:23.199Z,12.31
2022-09-15T03:14:23.208Z,12.24
2022-09-15T03:15:23.159Z,12.32
2022-09-15T03:16:23.198Z,12.21
2022-09-15T03:17:23.146Z,12.21
2022-09-15T03:18:23.100Z,12.24
2022-09-15T03:19:23.082Z,12.18
2022-09-15T03:20:23.059Z,12.24
2022-09-15T03:21:23.043Z,12.17
2022-09-15T03:22:23.058Z,12.22
2022-09-15T03:23:23.004Z,12.17
2022-09-15T03:24:22.981Z,12.20
2022-09-15T03:25:22.965Z,12.12
2022-09-15T03:26:22.940Z,12.17
2022-09-15T03:27:22.953Z,12.13
2022-09-15T03:28:22.901Z,12.15
2022-09-15T03:29:22.885Z,12.09
2022-09-15T03:30:22.863Z,12.07
2022-09-15T03:31:22.924Z,12.04
2022-09-15T03:32:22.845Z,12.00
2022-09-15T03:33:22.804Z,12.03
2022-09-15T03:34:22.781Z,11.94
2022-09-15T03:35:22.764Z,11.94
2022-09-15T03:36:22.752Z,11.97
2022-09-15T03:37:22.729Z,11.75
2022-09-15T03:38:22.733Z,11.81
2022-09-15T03:39:22.688Z,11.80
2022-09-15T03:40:22.695Z,11.73
2022-09-15T03:41:22.652Z,11.78
2022-09-15T03:42:22.655Z,11.78
2022-09-15T03:43:22.611Z,11.81
2022-09-15T03:44:22.594Z,11.83
2022-09-15T03:45:22.572Z,11.72
2022-09-15T03:46:22.580Z,11.72
2022-09-15T03:47:22.570Z,11.73
2022-09-15T03:48:22.513Z,11.70
2022-09-15T03:49:22.510Z,11.77
2022-09-15T03:50:22.480Z,11.66
2022-09-15T03:51:22.463Z,11.69
2022-09-15T03:52:22.438Z,11.72
2022-09-15T03:53:22.447Z,11.72
2022-09-15T03:54:22.405Z,11.69
2022-09-15T03:55:22.383Z,11.62
2022-09-15T03:56:22.365Z,11.73
2022-09-15T03:57:22.374Z,11.66
2022-09-15T03:58:22.329Z,11.73
2022-09-15T03:59:22.311Z,11.73
2022-09-15T04:00:22.290Z,11.80
2022-09-15T04:01:22.344Z,11.73
2022-09-15T04:02:22.342Z,11.78
2022-09-15T04:03:22.237Z,11.81
2022-09-15T04:04:22.218Z,11.77
2022-09-15T04:05:22.200Z,11.83
2022-09-15T04:06:22.205Z,11.88
2022-09-15T04:07:22.198Z,11.83
2022-09-15T04:08:22.147Z,11.86
2022-09-15T04:09:22.131Z,11.88
2022-09-15T04:10:22.113Z,12.03
2022-09-15T04:11:22.119Z,12.00
2022-09-15T04:12:22.076Z,12.02
2022-09-15T04:13:26.658Z,12.03
2022-09-15T04:14:24.040Z,12.03
2022-09-15T04:15:22.024Z,12.03
2022-09-15T04:16:22.116Z,12.12
2022-09-15T04:17:21.991Z,12.02
2022-09-15T04:18:21.997Z,12.03
2022-09-15T04:19:21.949Z,12.10
2022-09-15T04:20:21.931Z,12.03
2022-09-15T04:21:21.912Z,12.06
2022-09-15T04:22:21.921Z,11.95
2022-09-15T04:23:21.906Z,11.95
2022-09-15T04:24:21.865Z,11.94
2022-09-15T04:25:21.846Z,11.95
2022-09-15T04:26:21.820Z,11.97
2022-09-15T04:27:21.804Z,11.88
2022-09-15T04:28:21.803Z,11.97
2022-09-15T04:29:22.770Z,12.04
2022-09-15T04:30:21.749Z,12.02
2022-09-15T04:31:21.774Z,11.95
2022-09-15T04:32:21.716Z,11.94
2022-09-15T04:33:21.725Z,11.99
2022-09-15T04:34:21.681Z,12.03
2022-09-15T04:35:21.662Z,11.95
2022-09-15T04:36:21.638Z,12.02
2022-09-15T04:37:21.651Z,12.00
2022-09-15T04:38:21.604Z,12.00
2022-09-15T04:39:21.584Z,11.94
2022-09-15T04:40:21.613Z,11.97
2022-09-15T04:41:21.554Z,12.07
2022-09-15T04:42:21.561Z,11.99
2022-09-15T04:43:21.514Z,12.00
2022-09-15T04:44:21.493Z,12.04
2022-09-15T04:45:21.475Z,11.99
2022-09-15T04:46:21.500Z,12.02
2022-09-15T04:47:21.502Z,12.03
2022-09-15T04:48:21.415Z,12.07
2022-09-15T04:49:21.398Z,12.07
2022-09-15T04:50:21.380Z,12.18
2022-09-15T04:51:21.347Z,12.10
2022-09-15T04:52:22.371Z,12.10
2022-09-15T04:53:21.322Z,12.10
2022-09-15T04:54:21.305Z,12.09
2022-09-15T04:55:21.293Z,12.20
2022-09-15T04:56:21.273Z,11.99
2022-09-15T04:57:21.310Z,12.00
2022-09-15T04:58:21.233Z,12.10
2022-09-15T04:59:21.216Z,12.07
2022-09-15T05:00:21.196Z,12.03
2022-09-15T05:01:21.278Z,12.00
2022-09-15T05:02:21.261Z,12.10
2022-09-15T05:03:21.148Z,12.10
2022-09-15T05:04:21.131Z,12.02
2022-09-15T05:05:21.114Z,12.04
2022-09-15T05:06:21.090Z,11.99
2022-09-15T05:07:21.101Z,12.04
2022-09-15T05:08:21.054Z,12.10
2022-09-15T05:09:21.035Z,12.06
2022-09-15T05:10:21.014Z,12.09
2022-09-15T05:11:21.002Z,12.04
2022-09-15T05:12:21.005Z,11.99
2022-09-15T05:13:20.956Z,12.07
2022-09-15T05:14:20.936Z,12.02
2022-09-15T05:15:20.926Z,12.04
2022-09-15T05:16:20.986Z,12.12
2022-09-15T05:17:23.134Z,12.20
2022-09-15T05:18:21.861Z,12.07
2022-09-15T05:19:20.848Z,12.12
2022-09-15T05:20:20.825Z,12.17
2022-09-15T05:21:20.811Z,12.12
2022-09-15T05:22:20.817Z,12.20
2022-09-15T05:23:20.769Z,12.20
2022-09-15T05:24:20.747Z,12.24
2022-09-15T05:25:20.732Z,12.25
2022-09-15T05:26:20.714Z,12.32
2022-09-15T05:27:20.718Z,12.31
2022-09-15T05:28:20.675Z,12.25
2022-09-15T05:29:20.654Z,12.43
2022-09-15T05:30:39.598Z,12.43
2022-09-15T05:31:22.683Z,12.43
2022-09-15T05:32:20.620Z,12.37
2022-09-15T05:33:21.588Z,12.55
2022-09-15T05:34:20.563Z,12.61
2022-09-15T05:35:20.547Z,12.49
2022-09-15T05:36:20.528Z,12.55
2022-09-15T05:37:20.545Z,12.49
2022-09-15T05:38:20.496Z,12.39
2022-09-15T05:39:20.471Z,12.54
2022-09-15T05:40:20.495Z,12.53
2022-09-15T05:41:20.432Z,12.50
2022-09-15T05:42:20.439Z,12.40
2022-09-15T05:43:20.394Z,12.50
2022-09-15T05:44:21.378Z,12.36
2022-09-15T05:45:20.359Z,12.40
2022-09-15T05:46:20.409Z,12.45
2022-09-15T05:47:20.339Z,12.40
2022-09-15T05:48:20.297Z,12.40
2022-09-15T05:49:20.277Z,12.40
2022-09-15T05:50:20.257Z,12.39
2022-09-15T05:51:20.239Z,12.40
2022-09-15T05:52:20.241Z,12.37
2022-09-15T05:53:20.193Z,12.36
2022-09-15T05:54:20.175Z,12.39
2022-09-15T05:55:20.153Z,12.37
2022-09-15T05:56:20.145Z,12.45
2022-09-15T05:57:20.171Z,12.37
2022-09-15T05:58:20.096Z,12.42
2022-09-15T05:59:20.070Z,12.49
2022-09-15T06:00:20.051Z,12.57
2022-09-15T06:01:20.035Z,12.55
2022-09-15T06:02:20.075Z,12.64
2022-09-15T06:03:20.078Z,12.73
2022-09-15T06:04:20.976Z,12.75
2022-09-15T06:05:19.955Z,12.80
2022-09-15T06:06:19.992Z,12.73
2022-09-15T06:07:19.942Z,12.72
2022-09-15T06:08:19.894Z,12.82
2022-09-15T06:09:19.878Z,12.82
2022-09-15T06:10:19.857Z,12.75
2022-09-15T06:11:19.836Z,12.85
2022-09-15T06:12:19.846Z,12.87
2022-09-15T06:13:19.798Z,13.04
2022-09-15T06:14:19.778Z,13.08
2022-09-15T06:15:19.759Z,13.11
2022-09-15T06:16:19.815Z,13.12
2022-09-15T06:17:19.742Z,13.08
2022-09-15T06:18:19.698Z,13.16
2022-09-15T06:19:19.677Z,13.05
2022-09-15T06:20:19.662Z,13.09
2022-09-15T06:21:19.638Z,13.12
2022-09-15T06:22:19.649Z,13.16
2022-09-15T06:23:19.604Z,13.09
2022-09-15T06:24:19.578Z,13.08
2022-09-15T06:25:19.557Z,13.05
2022-09-15T06:26:19.533Z,13.12
2022-09-15T06:27:19.546Z,13.15
2022-09-15T06:28:19.496Z,13.16
2022-09-15T06:29:19.476Z,13.11
2022-09-15T06:30:19.459Z,13.08
2022-09-15T06:31:19.522Z,13.00
2022-09-15T06:32:19.416Z,13.03
2022-09-15T06:33:19.403Z,12.95
2022-09-15T06:34:19.374Z,12.98
2022-09-15T06:35:19.357Z,13.04
2022-09-15T06:36:19.364Z,13.03
2022-09-15T06:37:19.313Z,13.09
2022-09-15T06:38:19.293Z,13.03
2022-09-15T06:39:19.277Z,13.03
2022-09-15T06:40:19.329Z,12.95
2022-09-15T06:41:19.258Z,12.94
2022-09-15T06:42:19.209Z,12.98
2022-09-15T06:43:19.192Z,12.97
2022-09-15T06:44:19.170Z,13.01
2022-09-15T06:45:19.147Z,13.01
2022-09-15T06:46:19.221Z,13.09
2022-09-15T06:47:19.108Z,13.16
2022-09-15T06:48:24.698Z,13.23
2022-09-15T06:49:21.068Z,13.15
2022-09-15T06:50:19.051Z,13.22
2022-09-15T06:51:19.059Z,13.27
2022-09-15T06:52:19.007Z,13.31
2022-09-15T06:53:19.015Z,13.44
2022-09-15T06:54:18.982Z,13.47
2022-09-15T06:55:18.947Z,13.59
2022-09-15T06:56:18.954Z,13.68
2022-09-15T06:57:18.909Z,13.65
2022-09-15T06:58:18.893Z,13.71
2022-09-15T06:59:18.892Z,13.78
2022-09-15T07:00:18.847Z,13.77
2022-09-15T07:01:18.828Z,13.81
2022-09-15T07:02:18.932Z,13.87
2022-09-15T07:03:18.857Z,13.87
2022-09-15T07:04:18.768Z,13.90
2022-09-15T07:05:18.746Z,13.86
2022-09-15T07:06:18.755Z,13.85
2022-09-15T07:07:18.705Z,13.78
2022-09-15T07:08:18.682Z,13.86
2022-09-15T07:09:18.658Z,13.86
2022-09-15T07:10:18.639Z,13.92
2022-09-15T07:11:18.653Z,13.79
2022-09-15T07:12:18.601Z,13.92
2022-09-15T07:13:18.580Z,14.05
2022-09-15T07:14:18.557Z,14.22
2022-09-15T07:15:18.535Z,14.41
2022-09-15T07:16:18.579Z,14.63
2022-09-15T07:17:18.499Z,15.27
2022-09-15T07:18:18.469Z,16.21
2022-09-15T07:19:18.480Z,16.31
2022-09-15T07:20:18.430Z,16.21
2022-09-15T07:21:18.439Z,16.41
2022-09-15T07:22:18.384Z,16.38
2022-09-15T07:23:18.359Z,16.28
2022-09-15T07:24:18.340Z,16.20
2022-09-15T07:25:18.315Z,16.21
2022-09-15T07:26:18.292Z,16.16
2022-09-15T07:27:18.296Z,16.02
2022-09-15T07:28:18.247Z,15.98
2022-09-15T07:29:18.225Z,15.90
2022-09-15T07:30:18.205Z,15.79
2022-09-15T07:31:18.263Z,15.68
2022-09-15T07:32:18.186Z,15.82
2022-09-15T07:33:18.140Z,15.92
2022-09-15T07:34:18.113Z,16.10
2022-09-15T07:35:18.093Z,16.31
2022-09-15T07:36:18.071Z,16.41
2022-09-15T07:37:18.070Z,16.46
2022-09-15T07:38:18.021Z,16.56
2022-09-15T07:39:17.999Z,16.49
2022-09-15T07:40:18.039Z,16.97
2022-09-15T07:41:17.954Z,16.68
2022-09-15T07:42:17.958Z,16.66
2022-09-15T07:43:17.924Z,16.39
2022-09-15T07:44:17.909Z,16.20
2022-09-15T07:45:17.871Z,16.16
2022-09-15T07:46:17.852Z,16.09
2022-09-15T07:47:17.861Z,15.80
2022-09-15T07:48:17.807Z,15.80
2022-09-15T07:49:17.805Z,15.67
2022-09-15T07:50:17.766Z,15.47
2022-09-15T07:51:17.740Z,15.58
2022-09-15T07:52:17.759Z,15.36
2022-09-15T07:53:17.699Z,15.22
2022-09-15T07:54:21.965Z,15.17
2022-09-15T07:55:19.653Z,15.07
2022-09-15T07:56:17.635Z,15.04
2022-09-15T07:57:17.638Z,15.09
2022-09-15T07:58:17.590Z,15.04
2022-09-15T07:59:17.571Z,15.10
2022-09-15T08:00:17.554Z,14.99
2022-09-15T08:01:17.689Z,14.92
2022-09-15T08:02:17.583Z,14.69
2022-09-15T08:03:17.476Z,14.59
2022-09-15T08:04:17.459Z,14.63
2022-09-15T08:05:17.432Z,14.63
2022-09-15T08:06:17.437Z,14.51
2022-09-15T08:07:17.387Z,14.45
2022-09-15T08:08:17.365Z,14.40
2022-09-15T08:09:17.343Z,14.47
2022-09-15T08:10:17.319Z,14.47
2022-09-15T08:11:18.913Z,14.37
2022-09-15T08:12:18.275Z,14.50
2022-09-15T08:13:17.252Z,14.47
2022-09-15T08:14:17.231Z,14.58
2022-09-15T08:15:17.211Z,14.66
2022-09-15T08:16:17.298Z,14.73
2022-09-15T08:17:17.163Z,14.73
2022-09-15T08:18:17.135Z,14.79
2022-09-15T08:19:17.118Z,14.85
2022-09-15T08:20:17.111Z,14.77
2022-09-15T08:21:17.101Z,14.79
2022-09-15T08:22:17.049Z,14.86
2022-09-15T08:23:17.027Z,14.86
2022-09-15T08:24:17.005Z,14.86
2022-09-15T08:25:16.979Z,14.72
2022-09-15T08:26:16.989Z,14.77
2022-09-15T08:27:16.935Z,14.97
2022-09-15T08:28:16.919Z,14.99
2022-09-15T08:29:16.893Z,15.00
2022-09-15T08:30:16.870Z,15.02
2022-09-15T08:31:16.966Z,15.00
2022-09-15T08:32:16.820Z,14.96
2022-09-15T08:33:16.807Z,14.96
2022-09-15T08:34:16.773Z,14.96
2022-09-15T08:35:16.753Z,14.86
2022-09-15T08:36:16.766Z,14.79
2022-09-15T08:37:16.711Z,14.70
2022-09-15T08:38:16.685Z,14.73
2022-09-15T08:39:16.663Z,14.66
2022-09-15T08:40:16.700Z,14.54
2022-09-15T08:41:16.645Z,14.66
2022-09-15T08:42:16.598Z,14.53
2022-09-15T08:43:16.582Z,14.45
2022-09-15T08:44:16.551Z,14.43
2022-09-15T08:45:16.529Z,14.48
2022-09-15T08:46:16.582Z,14.48
2022-09-15T08:47:16.481Z,14.44
2022-09-15T08:48:16.460Z,14.43
2022-09-15T08:49:26.868Z,14.44
2022-09-15T08:50:18.506Z,14.51
2022-09-15T08:51:16.419Z,14.44
2022-09-15T08:52:16.373Z,14.44
2022-09-15T08:53:16.355Z,14.53
2022-09-15T08:54:16.328Z,14.36
2022-09-15T08:55:16.303Z,14.45
2022-09-15T08:56:16.307Z,14.40
2022-09-15T08:57:17.259Z,14.53
2022-09-15T08:58:16.238Z,14.50
2022-09-15T08:59:16.219Z,14.51
2022-09-15T09:00:16.192Z,14.63
2022-09-15T09:01:16.228Z,14.65
2022-09-15T09:02:16.380Z,14.82
2022-09-15T09:03:16.126Z,14.77
2022-09-15T09:04:18.111Z,14.89
2022-09-15T09:05:17.075Z,14.88
2022-09-15T09:06:16.080Z,14.85
2022-09-15T09:07:16.031Z,14.99
2022-09-15T09:08:16.006Z,14.99
2022-09-15T09:09:15.984Z,14.99
2022-09-15T09:10:15.961Z,14.97
2022-09-15T09:11:15.962Z,15.14
2022-09-15T09:12:15.912Z,15.14
2022-09-15T09:13:15.889Z,15.17
2022-09-15T09:14:15.868Z,15.28
2022-09-15T09:15:15.842Z,15.29
2022-09-15T09:16:15.881Z,15.29
2022-09-15T09:17:15.797Z,15.39
2022-09-15T09:18:15.774Z,15.46
2022-09-15T09:19:15.752Z,15.58
2022-09-15T09:20:15.728Z,15.62
2022-09-15T09:21:15.733Z,15.72
2022-09-15T09:22:15.693Z,15.82
2022-09-15T09:23:15.659Z,15.72
2022-09-15T09:24:15.636Z,15.92
2022-09-15T09:25:26.628Z,16.00
2022-09-15T09:26:17.619Z,16.09
2022-09-15T09:27:15.570Z,16.15
2022-09-15T09:28:15.546Z,16.15
2022-09-15T09:29:15.523Z,16.15
2022-09-15T09:30:15.499Z,16.13
2022-09-15T09:31:15.558Z,16.20
2022-09-15T09:32:18.598Z,16.21
2022-09-15T09:33:17.436Z,16.16
2022-09-15T09:34:15.413Z,16.23
2022-09-15T09:35:15.397Z,16.28
2022-09-15T09:36:15.398Z,16.33
2022-09-15T09:37:15.330Z,16.28
2022-09-15T09:38:16.318Z,16.20
2022-09-15T09:39:15.294Z,16.00
2022-09-15T09:40:15.343Z,16.05
2022-09-15T09:41:15.260Z,16.00
2022-09-15T09:42:15.235Z,15.98
2022-09-15T09:43:15.219Z,15.84
2022-09-15T09:44:15.186Z,15.82
2022-09-15T09:45:15.193Z,15.73
2022-09-15T09:46:15.334Z,15.70
2022-09-15T09:47:15.118Z,15.67
2022-09-15T09:48:15.094Z,15.68
2022-09-15T09:49:15.076Z,15.61
2022-09-15T09:50:15.147Z,15.61
2022-09-15T09:51:15.060Z,15.52
2022-09-15T09:52:17.900Z,15.54
2022-09-15T09:53:15.985Z,15.61
2022-09-15T09:54:14.965Z,15.58
2022-09-15T09:55:14.940Z,15.62
2022-09-15T09:56:14.949Z,15.55
2022-09-15T09:57:14.898Z,15.68
2022-09-15T09:58:14.871Z,15.65
2022-09-15T09:59:14.849Z,15.79
2022-09-15T10:00:14.950Z,15.97
2022-09-15T10:01:14.906Z,16.04
2022-09-15T10:02:14.781Z,16.28
2022-09-15T10:03:14.760Z,16.46
2022-09-15T10:04:14.737Z,16.50
2022-09-15T10:05:14.835Z,16.54
2022-09-15T10:06:14.718Z,16.72
2022-09-15T10:07:14.671Z,16.81
2022-09-15T10:08:14.670Z,16.81
2022-09-15T10:09:14.626Z,16.91
2022-09-15T10:10:14.605Z,16.97
2022-09-15T10:11:14.634Z,16.89
2022-09-15T10:12:14.563Z,16.94
2022-09-15T10:13:14.536Z,17.12
2022-09-15T10:14:14.512Z,17.27
2022-09-15T10:15:14.485Z,17.30
2022-09-15T10:16:15.512Z,17.48
2022-09-15T10:17:14.447Z,17.64
2022-09-15T10:18:14.425Z,17.76
2022-09-15T10:19:14.408Z,17.82
2022-09-15T10:20:14.383Z,17.92
2022-09-15T10:21:14.388Z,17.87
2022-09-15T10:22:14.339Z,17.98
2022-09-15T10:23:14.315Z,17.83
2022-09-15T10:24:17.960Z,17.89
2022-09-15T10:25:15.275Z,17.63
2022-09-15T10:26:14.285Z,17.46
2022-09-15T10:27:14.233Z,17.33
2022-09-15T10:28:14.209Z,17.39
2022-09-15T10:29:14.189Z,17.22
2022-09-15T10:30:14.166Z,17.22
2022-09-15T10:31:14.270Z,17.36
2022-09-15T10:32:14.210Z,17.48
2022-09-15T10:33:14.109Z,17.80
2022-09-15T10:34:14.084Z,17.89
2022-09-15T10:35:14.058Z,17.97
2022-09-15T10:36:14.043Z,18.23
2022-09-15T10:37:14.051Z,18.49
2022-09-15T10:38:15.054Z,18.53
2022-09-15T10:39:13.981Z,18.62
2022-09-15T10:40:14.003Z,18.71
2022-09-15T10:41:13.942Z,18.68
2022-09-15T10:42:13.947Z,18.50
2022-09-15T10:43:13.906Z,18.43
2022-09-15T10:44:13.886Z,18.19
2022-09-15T10:45:13.865Z,18.13
2022-09-15T10:46:13.922Z,17.79
2022-09-15T10:47:13.850Z,17.70
2022-09-15T10:48:13.803Z,17.78
2022-09-15T10:49:13.776Z,18.05
2022-09-15T10:50:13.759Z,18.33
2022-09-15T10:51:13.744Z,18.53
2022-09-15T10:52:13.749Z,18.65
2022-09-15T10:53:13.699Z,18.75
2022-09-15T10:54:13.679Z,18.78
2022-09-15T10:55:13.660Z,19.08
2022-09-15T10:56:13.639Z,19.39
2022-09-15T10:57:13.677Z,19.34
2022-09-15T10:58:13.604Z,19.58
2022-09-15T10:59:13.580Z,19.70
2022-09-15T11:00:13.573Z,19.77
2022-09-15T11:01:13.576Z,19.91
2022-09-15T11:02:13.603Z,20.11
2022-09-15T11:03:13.502Z,20.19
2022-09-15T11:04:13.485Z,20.09
2022-09-15T11:05:13.466Z,20.24
2022-09-15T11:06:13.463Z,20.25
2022-09-15T11:07:13.456Z,19.88
2022-09-15T11:08:13.413Z,19.64
2022-09-15T11:09:13.392Z,19.44
2022-09-15T11:10:13.517Z,19.29
2022-09-15T11:11:13.346Z,19.21
2022-09-15T11:12:13.358Z,19.24
2022-09-15T11:13:13.309Z,19.09
2022-09-15T11:14:13.291Z,18.93
2022-09-15T11:15:13.268Z,18.99
2022-09-15T11:16:13.317Z,18.88
2022-09-15T11:17:13.256Z,18.65
2022-09-15T11:18:13.220Z,18.53
2022-09-15T11:19:13.198Z,18.43
2022-09-15T11:20:13.179Z,18.58
2022-09-15T11:21:13.155Z,18.63
2022-09-15T11:22:13.166Z,18.90
2022-09-15T11:23:13.128Z,18.84
2022-09-15T11:24:13.107Z,19.07
2022-09-15T11:25:13.079Z,19.02
2022-09-15T11:26:13.061Z,19.22
2022-09-15T11:27:13.068Z,19.16
2022-09-15T11:28:13.023Z,19.07
2022-09-15T11:29:13.002Z,18.92
2022-09-15T11:30:12.972Z,18.65
2022-09-15T11:31:14.046Z,18.37
2022-09-15T11:32:12.971Z,18.37
2022-09-15T11:33:12.925Z,18.22
2022-09-15T11:34:12.903Z,18.29
2022-09-15T11:35:12.890Z,18.22
2022-09-15T11:36:12.863Z,18.16
2022-09-15T11:37:12.869Z,17.79
2022-09-15T11:38:13.181Z,17.68
2022-09-15T11:39:12.824Z,17.64
2022-09-15T11:40:12.896Z,17.79
2022-09-15T11:41:12.764Z,17.48
2022-09-15T11:42:12.769Z,17.44
2022-09-15T11:43:12.723Z,17.44
2022-09-15T11:44:16.615Z,17.44
2022-09-15T11:45:13.690Z,17.39
2022-09-15T11:46:12.737Z,17.48
2022-09-15T11:47:12.687Z,17.29
2022-09-15T11:48:12.631Z,17.22
2022-09-15T11:49:12.606Z,17.12
2022-09-15T11:50:12.588Z,17.16
2022-09-15T11:51:12.570Z,17.11
2022-09-15T11:52:12.579Z,17.14
2022-09-15T11:53:12.522Z,17.04
2022-09-15T11:54:13.516Z,17.14
2022-09-15T11:55:12.487Z,17.11
2022-09-15T11:56:12.466Z,17.08
2022-09-15T11:57:12.471Z,17.04
2022-09-15T11:58:12.422Z,17.01
2022-09-15T11:59:12.401Z,17.16
2022-09-15T12:00:12.419Z,17.09
2022-09-15T12:01:12.384Z,17.11
2022-09-15T12:02:12.519Z,17.12
2022-09-15T12:03:12.353Z,17.11
2022-09-15T12:04:12.298Z,17.11
2022-09-15T12:05:12.272Z,17.20
2022-09-15T12:06:12.283Z,17.24
2022-09-15T12:07:13.897Z,17.29
2022-09-15T12:08:13.217Z,17.41
2022-09-15T12:09:12.202Z,17.39
2022-09-15T12:10:12.168Z,17.59
2022-09-15T12:11:12.143Z,17.59
2022-09-15T12:12:12.157Z,17.60
2022-09-15T12:13:12.102Z,17.68
2022-09-15T12:14:12.082Z,17.52
2022-09-15T12:15:12.065Z,17.48
2022-09-15T12:16:12.087Z,17.49
2022-09-15T12:17:12.048Z,17.52
2022-09-15T12:18:34.589Z,17.46
2022-09-15T12:19:13.981Z,17.49
2022-09-15T12:20:11.962Z,17.48
2022-09-15T12:21:11.941Z,17.27
2022-09-15T12:22:11.946Z,17.29
2022-09-15T12:23:11.894Z,17.26
2022-09-15T12:24:11.874Z,17.11
2022-09-15T12:25:11.859Z,17.06
2022-09-15T12:26:11.834Z,17.02
2022-09-15T12:27:11.837Z,16.89
2022-09-15T12:28:11.793Z,17.06
2022-09-15T12:29:11.778Z,16.93
2022-09-15T12:30:11.748Z,16.87
2022-09-15T12:31:11.772Z,16.93
2022-09-15T12:32:11.735Z,16.90
2022-09-15T12:33:11.687Z,16.93
2022-09-15T12:34:11.667Z,16.86
2022-09-15T12:35:13.726Z,16.94
2022-09-15T12:36:12.621Z,16.94
2022-09-15T12:37:11.628Z,16.93
2022-09-15T12:38:11.580Z,17.05
2022-09-15T12:39:11.562Z,17.26
2022-09-15T12:40:11.581Z,17.27
2022-09-15T12:41:11.512Z,17.46
2022-09-15T12:42:11.534Z,17.59
2022-09-15T12:43:11.478Z,17.52
2022-09-15T12:44:11.449Z,17.48
2022-09-15T12:45:11.432Z,17.51
2022-09-15T12:46:11.453Z,17.48
2022-09-15T12:47:11.415Z,17.33
2022-09-15T12:48:11.369Z,17.44
2022-09-15T12:49:11.344Z,17.52
2022-09-15T12:50:11.321Z,17.48
2022-09-15T12:51:11.297Z,17.54
2022-09-15T12:52:11.303Z,17.45